createdAt,value
2022-09-20T00:01:21.932Z,99565.97
2022-09-20T00:03:51.514Z,99571.94
2022-09-20T00:06:22.692Z,99536.38
2022-09-20T00:08:50.872Z,99582.09
2022-09-20T00:11:21.964Z,99540.66
2022-09-20T00:13:52.250Z,99542.16
2022-09-20T00:16:23.729Z,99589.69
2022-09-20T00:18:52.960Z,99586.31
2022-09-20T00:21:23.186Z,99587.22
2022-09-20T00:23:52.432Z,99584.66
2022-09-20T00:26:21.855Z,99594.59
2022-09-20T00:28:50.792Z,99591.19
2022-09-20T00:31:18.921Z,99590.44
2022-09-20T00:34:04.840Z,99588.75
2022-09-20T00:36:32.756Z,99582.75
2022-09-20T00:39:03.027Z,99581.94
2022-09-20T00:41:33.440Z,99576.84
2022-09-20T00:44:02.690Z,99591.09
2022-09-20T00:46:37.516Z,99589.41
2022-09-20T00:49:12.521Z,99585.94
2022-09-20T00:51:44.125Z,99572.34
2022-09-20T00:54:18.182Z,99574.88
2022-09-20T00:56:49.986Z,99592.53
2022-09-20T00:59:20.816Z,99559.63
2022-09-20T01:01:53.540Z,99595.03
2022-09-20T01:04:25.235Z,99588.22
2022-09-20T01:06:55.848Z,99592.53
2022-09-20T01:09:23.801Z,99592.53
2022-09-20T01:11:55.407Z,99574.03
2022-09-20T01:14:24.173Z,99592.56
2022-09-20T01:16:54.593Z,99574.19
2022-09-20T01:19:33.676Z,99578.41
2022-09-20T01:22:05.352Z,99587.59
2022-09-20T01:24:42.675Z,99580.09
2022-09-20T01:27:23.333Z,99589.28
2022-09-20T01:30:05.189Z,99595.09
2022-09-20T01:32:44.030Z,99596.72
2022-09-20T01:35:13.053Z,99602.41
2022-09-20T01:37:54.583Z,99594.88
2022-09-20T01:40:31.832Z,99594.03
2022-09-20T01:43:09.428Z,99591.44
2022-09-20T01:45:46.103Z,99596.34
2022-09-20T01:48:20.687Z,99584.66
2022-09-20T01:51:12.429Z,99598.94
2022-09-20T01:54:10.869Z,99593.97
2022-09-20T01:57:12.035Z,99591.56
2022-09-20T01:59:56.760Z,99588.28
2022-09-20T02:03:00.948Z,99587.47
2022-09-20T02:06:08.568Z,99588.31
2022-09-20T02:09:08.719Z,99581.56
2022-09-20T02:11:52.125Z,99589.06
2022-09-20T02:14:33.185Z,99582.28
2022-09-20T02:17:12.112Z,99581.50
2022-09-20T02:20:05.460Z,99584.88
2022-09-20T02:22:45.772Z,99584.03
2022-09-20T02:25:24.716Z,99581.50
2022-09-20T02:28:07.356Z,99588.19
2022-09-20T02:30:50.287Z,99596.47
2022-09-20T02:33:33.444Z,99589.66
2022-09-20T02:36:17.540Z,99586.16
2022-09-20T02:39:00.235Z,99580.25
2022-09-20T02:41:59.985Z,99581.97
2022-09-20T02:44:44.943Z,99591.06
2022-09-20T02:47:22.643Z,99591.06
2022-09-20T02:50:04.168Z,99583.53
2022-09-20T02:52:38.972Z,99581.59
2022-09-20T02:55:13.110Z,99580.81
2022-09-20T02:57:53.667Z,99584.03
2022-09-20T03:00:25.388Z,99582.31
2022-09-20T03:03:06.318Z,99582.25
2022-09-20T03:05:48.883Z,99590.56
2022-09-20T03:08:31.179Z,99590.44
2022-09-20T03:11:10.524Z,99595.34
2022-09-20T03:13:55.696Z,99591.94
2022-09-20T03:16:36.463Z,99583.50
2022-09-20T03:19:16.653Z,99590.84
2022-09-20T03:21:57.753Z,99592.34
2022-09-20T03:24:40.627Z,99602.38
2022-09-20T03:27:17.612Z,99602.34
2022-09-20T03:30:00.000Z,99603.09
2022-09-20T03:32:45.854Z,99600.59
2022-09-20T03:35:30.296Z,99595.63
2022-09-20T03:38:14.148Z,99604.88
2022-09-20T03:40:59.855Z,99598.28
2022-09-20T03:43:42.669Z,99594.91
2022-09-20T03:46:18.933Z,99600.72
2022-09-20T03:49:33.568Z,99590.69
2022-09-20T03:52:14.192Z,99596.34
2022-09-20T03:55:11.768Z,99596.31
2022-09-20T03:58:08.742Z,99594.84
2022-09-20T04:00:53.079Z,99603.44
2022-09-20T04:03:29.679Z,99611.13
2022-09-20T04:06:19.120Z,99603.75
2022-09-20T04:09:06.005Z,99608.03
2022-09-20T04:11:44.382Z,99607.31
2022-09-20T04:14:24.120Z,99612.34
2022-09-20T04:17:01.113Z,99610.84
2022-09-20T04:19:36.545Z,99612.59
2022-09-20T04:22:07.436Z,99618.50
2022-09-20T04:24:43.101Z,99623.50
2022-09-20T04:27:16.202Z,99622.63
2022-09-20T04:29:51.529Z,99625.06
2022-09-20T04:32:26.110Z,99622.63
2022-09-20T04:35:19.084Z,99622.63
2022-09-20T04:37:48.595Z,99624.41
2022-09-20T04:40:31.895Z,99622.69
2022-09-20T04:43:35.315Z,99622.53
2022-09-20T04:46:28.540Z,99634.28
2022-09-20T04:49:32.411Z,99637.59
2022-09-20T04:52:39.129Z,99640.84
2022-09-20T04:55:49.564Z,99640.84
2022-09-20T04:58:49.578Z,99642.53
2022-09-20T05:01:45.670Z,99628.31
2022-09-20T05:04:55.093Z,99639.31
2022-09-20T05:07:57.686Z,99640.22
2022-09-20T05:10:59.313Z,99634.41
2022-09-20T05:13:39.624Z,99622.69
2022-09-20T05:16:16.926Z,99641.41
2022-09-20T05:19:12.197Z,99644.19
2022-09-20T05:21:58.517Z,99641.84
2022-09-20T05:25:07.299Z,99644.31
2022-09-20T05:27:43.208Z,99648.50
2022-09-20T05:30:20.700Z,99649.47
2022-09-20T05:33:00.098Z,99642.06
2022-09-20T05:35:35.213Z,99645.41
2022-09-20T05:38:12.811Z,99653.72
2022-09-20T05:41:00.430Z,99650.44
2022-09-20T05:43:33.389Z,99653.84
2022-09-20T05:46:16.438Z,99609.06
2022-09-20T05:48:56.455Z,99625.78
2022-09-20T05:51:57.806Z,99601.53
2022-09-20T05:54:37.562Z,99608.47
2022-09-20T05:57:18.044Z,99613.50
2022-09-20T06:00:00.015Z,99621.97
2022-09-20T06:02:42.417Z,99616.16
2022-09-20T06:05:16.795Z,99647.50
2022-09-20T06:08:17.137Z,99605.28
2022-09-20T06:11:10.066Z,99633.97
2022-09-20T06:14:01.106Z,99614.53
2022-09-20T06:16:37.030Z,99664.38
2022-09-20T06:19:15.171Z,99623.53
2022-09-20T06:21:51.166Z,99604.97
2022-09-20T06:24:33.758Z,99616.81
2022-09-20T06:27:06.394Z,99625.34
2022-09-20T06:29:38.555Z,99682.16
2022-09-20T06:32:06.694Z,99630.88
2022-09-20T06:34:35.244Z,99640.94
2022-09-20T06:37:36.561Z,99678.81
2022-09-20T06:40:38.887Z,99649.06
2022-09-20T06:43:07.062Z,99630.44
2022-09-20T06:45:35.795Z,99642.16
2022-09-20T06:48:03.737Z,99620.41
2022-09-20T06:50:33.665Z,99663.25
2022-09-20T06:53:02.281Z,99652.56
2022-09-20T06:55:37.359Z,99691.78
2022-09-20T06:58:05.324Z,99653.97
2022-09-20T07:00:33.338Z,99655.72
2022-09-20T07:03:01.375Z,99690.53
2022-09-20T07:05:29.260Z,99695.66
2022-09-20T07:08:01.410Z,99699.78
2022-09-20T07:10:30.755Z,99698.97
2022-09-20T07:13:00.371Z,99707.31
2022-09-20T07:15:28.864Z,99702.22
2022-09-20T07:17:56.788Z,99708.88
2022-09-20T07:20:24.844Z,99724.75
2022-09-20T07:22:53.587Z,99720.41
2022-09-20T07:25:21.636Z,99727.13
2022-09-20T07:27:52.190Z,99727.16
2022-09-20T07:30:21.702Z,99744.81
2022-09-20T07:32:50.354Z,99695.72
2022-09-20T07:35:18.180Z,99707.56
2022-09-20T07:37:46.943Z,99704.16
2022-09-20T07:40:15.859Z,99654.91
2022-09-20T07:42:46.005Z,99704.09
2022-09-20T07:45:15.567Z,99751.47
2022-09-20T07:47:44.868Z,99712.47
2022-09-20T07:50:13.141Z,99702.22
2022-09-20T07:52:41.025Z,99711.63
2022-09-20T07:55:09.978Z,99699.97
2022-09-20T07:57:38.282Z,99695.84
2022-09-20T08:00:08.410Z,99697.91
2022-09-20T08:02:41.868Z,99706.44
2022-09-20T08:05:10.113Z,99744.16
2022-09-20T08:07:38.556Z,99762.97
2022-09-20T08:10:07.616Z,99709.22
2022-09-20T08:15:24.527Z,99720.25
2022-09-20T08:17:54.044Z,99742.16
2022-09-20T08:20:21.883Z,99720.88
2022-09-20T08:23:06.371Z,99761.19
2022-09-20T08:25:38.364Z,99758.50
2022-09-20T08:28:06.267Z,99717.84
2022-09-20T08:30:34.181Z,99711.13
2022-09-20T08:33:04.873Z,99717.97
2022-09-20T08:35:32.742Z,99750.31
2022-09-20T08:40:50.473Z,99720.19
2022-09-20T08:43:22.225Z,99759.19
2022-09-20T08:45:50.840Z,99721.16
2022-09-20T08:48:23.822Z,99723.59
2022-09-20T08:50:51.694Z,99728.63
2022-09-20T08:53:21.266Z,99769.16
2022-09-20T08:55:49.862Z,99729.69
2022-09-20T08:58:19.440Z,99769.34
2022-09-20T09:00:54.530Z,99722.88
2022-09-20T09:03:24.221Z,99770.25
2022-09-20T09:05:55.019Z,99722.19
2022-09-20T09:08:27.300Z,99722.97
2022-09-20T09:10:58.240Z,99765.22
2022-09-20T09:13:31.166Z,99762.66
2022-09-20T09:16:01.266Z,99770.91
2022-09-20T09:18:35.053Z,99762.50
2022-09-20T09:21:05.303Z,99718.63
2022-09-20T09:23:43.516Z,99708.69
2022-09-20T09:26:19.957Z,99762.91
2022-09-20T09:28:48.403Z,99700.44
2022-09-20T09:31:25.804Z,99710.69
2022-09-20T09:33:55.925Z,99726.06
2022-09-20T09:36:25.970Z,99677.22
2022-09-20T09:39:16.480Z,99755.19
2022-09-20T09:41:46.353Z,99707.28
2022-09-20T09:44:23.317Z,99742.81
2022-09-20T09:46:53.641Z,99713.16
2022-09-20T09:49:25.494Z,99704.78
2022-09-20T09:52:12.967Z,99711.41
2022-09-20T09:54:44.462Z,99746.03
2022-09-20T09:57:35.362Z,99697.72
2022-09-20T10:00:17.764Z,99705.03
2022-09-20T10:03:15.061Z,99702.34
2022-09-20T10:06:00.622Z,99694.00
2022-09-20T10:08:38.251Z,99697.59
2022-09-20T10:11:19.240Z,99690.13
2022-09-20T10:13:58.478Z,99678.44
2022-09-20T10:16:37.675Z,99679.34
2022-09-20T10:19:15.084Z,99681.22
2022-09-20T10:21:56.284Z,99738.78
2022-09-20T10:24:36.397Z,99691.53
2022-09-20T10:27:19.267Z,99725.28
2022-09-20T10:30:02.907Z,99677.94
2022-09-20T10:32:53.954Z,99702.50
2022-09-20T10:35:30.359Z,99700.03
2022-09-20T10:38:21.633Z,99696.72
2022-09-20T10:41:28.259Z,99693.47
2022-09-20T10:44:13.606Z,99709.31
2022-09-20T10:46:49.928Z,99694.97
2022-09-20T10:49:25.015Z,99691.75
2022-09-20T10:52:10.062Z,99689.41
2022-09-20T10:54:53.826Z,99688.72
2022-09-20T10:57:46.541Z,99728.44
2022-09-20T11:00:22.231Z,99682.06
2022-09-20T11:03:08.011Z,99689.66
2022-09-20T11:05:44.855Z,99688.03
2022-09-20T11:08:16.324Z,99682.94
2022-09-20T11:10:50.163Z,99704.00
2022-09-20T11:13:26.196Z,99688.78
2022-09-20T11:16:01.681Z,99673.63
2022-09-20T11:18:35.689Z,99672.81
2022-09-20T11:21:09.532Z,99680.47
2022-09-20T11:23:46.307Z,99667.03
2022-09-20T11:26:22.447Z,99710.94
2022-09-20T11:28:55.098Z,99670.50
2022-09-20T11:31:27.802Z,99664.66
2022-09-20T11:34:00.424Z,99665.50
2022-09-20T11:36:38.321Z,99694.16
2022-09-20T11:39:14.917Z,99662.22
2022-09-20T11:41:44.905Z,99647.13
2022-09-20T11:44:16.281Z,99653.22
2022-09-20T11:46:52.268Z,99653.25
2022-09-20T11:49:24.896Z,99655.75
2022-09-20T11:52:17.482Z,99655.75
2022-09-20T11:55:28.106Z,99653.31
2022-09-20T11:58:08.222Z,99642.41
2022-09-20T12:00:38.757Z,99649.16
2022-09-20T12:03:21.745Z,99650.03
2022-09-20T12:05:58.903Z,99659.13
2022-09-20T12:08:30.504Z,99648.69
2022-09-20T12:11:04.221Z,99634.91
2022-09-20T12:13:36.381Z,99639.84
2022-09-20T12:16:07.685Z,99619.53
2022-09-20T12:18:47.998Z,99653.38
2022-09-20T12:21:17.807Z,99638.16
2022-09-20T12:24:18.162Z,99653.38
2022-09-20T12:26:48.400Z,99664.28
2022-09-20T12:29:55.205Z,99622.19
2022-09-20T12:32:47.901Z,99691.50
2022-09-20T12:35:59.269Z,99690.72
2022-09-20T12:38:34.022Z,99686.59
2022-09-20T12:41:05.837Z,99652.13
2022-09-20T12:43:36.575Z,99655.53
2022-09-20T12:46:09.880Z,99641.34
2022-09-20T12:48:41.217Z,99688.66
2022-09-20T12:51:40.349Z,99649.88
2022-09-20T12:54:11.762Z,99684.56
2022-09-20T12:56:41.777Z,99650.91
2022-09-20T12:59:23.380Z,99649.28
2022-09-20T13:01:51.803Z,99680.47
2022-09-20T13:04:53.086Z,99698.13
2022-09-20T13:07:53.184Z,99657.63
2022-09-20T13:10:30.275Z,99642.34
2022-09-20T13:13:19.883Z,99679.34
2022-09-20T13:15:51.661Z,99678.41
2022-09-20T13:18:20.295Z,99646.19
2022-09-20T13:20:51.723Z,99648.50
2022-09-20T13:23:24.887Z,99678.56
2022-09-20T13:25:53.668Z,99717.56
2022-09-20T13:28:31.331Z,99700.50
2022-09-20T13:31:24.882Z,99739.03
2022-09-20T13:33:53.744Z,99719.22
2022-09-20T13:36:28.272Z,99732.19
2022-09-20T13:38:58.662Z,99736.97
2022-09-20T13:41:32.566Z,99721.69
2022-09-20T13:44:01.384Z,99735.25
2022-09-20T13:46:32.178Z,99710.25
2022-09-20T13:49:15.070Z,99741.38
2022-09-20T13:51:45.121Z,99744.50
2022-09-20T13:54:26.641Z,99727.06
2022-09-20T13:56:56.553Z,99754.47
2022-09-20T13:59:25.140Z,99783.59
2022-09-20T14:01:55.386Z,99785.50
2022-09-20T14:04:26.490Z,99774.13
2022-09-20T14:06:58.955Z,99773.31
2022-09-20T14:09:31.612Z,99790.16
2022-09-20T14:12:00.920Z,99779.50
2022-09-20T14:14:29.802Z,99784.50
2022-09-20T14:16:58.720Z,99787.03
2022-09-20T14:19:31.498Z,99780.75
2022-09-20T14:22:05.004Z,99781.06
2022-09-20T14:24:35.529Z,99789.03
2022-09-20T14:27:07.757Z,99768.28
2022-09-20T14:29:41.010Z,99789.81
2022-09-20T14:32:22.928Z,99790.97
2022-09-20T14:35:00.112Z,99783.66
2022-09-20T14:37:32.379Z,99788.25
2022-09-20T14:40:03.509Z,99786.09
2022-09-20T14:42:36.573Z,99787.09
2022-09-20T14:45:06.215Z,99783.16
2022-09-20T14:47:38.993Z,99780.09
2022-09-20T14:50:24.822Z,99782.81
2022-09-20T14:53:06.828Z,99787.22
2022-09-20T14:55:37.928Z,99775.69
2022-09-20T14:58:09.387Z,99782.53
2022-09-20T15:00:52.940Z,99775.00
2022-09-20T15:03:27.289Z,99786.84
2022-09-20T15:05:56.032Z,99773.47
2022-09-20T15:08:25.860Z,99777.66
2022-09-20T15:10:53.678Z,99777.72
2022-09-20T15:13:21.693Z,99774.38
2022-09-20T15:15:52.149Z,99771.94
2022-09-20T15:18:22.640Z,99767.06
2022-09-20T15:20:51.061Z,99769.78
2022-09-20T15:23:19.559Z,99749.53
2022-09-20T15:25:51.466Z,99770.91
2022-09-20T15:28:20.362Z,99765.44
2022-09-20T15:30:50.032Z,99767.38
2022-09-20T15:33:18.711Z,99769.91
2022-09-20T15:35:47.256Z,99765.78
2022-09-20T15:38:15.839Z,99766.47
2022-09-20T15:40:45.521Z,99763.72
2022-09-20T15:43:16.990Z,99765.31
2022-09-20T15:45:50.532Z,99763.53
2022-09-20T15:48:21.394Z,99768.41
2022-09-20T15:51:02.866Z,99770.69
2022-09-20T15:53:34.168Z,99771.31
2022-09-20T15:56:04.423Z,99772.88
2022-09-20T15:58:36.412Z,99768.50
2022-09-20T16:01:06.898Z,99774.94
2022-09-20T16:03:35.532Z,99772.34
2022-09-20T16:06:05.696Z,99772.22
2022-09-20T16:08:33.944Z,99782.81
2022-09-20T16:11:03.086Z,99774.06
2022-09-20T16:13:31.086Z,99787.63
2022-09-20T16:16:01.641Z,99784.50
2022-09-20T16:18:47.807Z,99790.97
2022-09-20T16:21:18.087Z,99790.97
2022-09-20T16:23:49.107Z,99793.22
2022-09-20T16:26:17.438Z,99801.22
2022-09-20T16:28:47.761Z,99800.13
2022-09-20T16:31:36.584Z,99802.56
2022-09-20T16:34:05.967Z,99810.03
2022-09-20T16:36:34.219Z,99811.59
2022-09-20T16:39:03.175Z,99808.16
2022-09-20T16:41:31.988Z,99815.44
2022-09-20T16:43:59.778Z,99815.13
2022-09-20T16:46:28.174Z,99825.09
2022-09-20T16:49:00.924Z,99821.72
2022-09-20T16:51:34.030Z,99825.75
2022-09-20T16:54:06.859Z,99829.84
2022-09-20T16:56:36.214Z,99841.47
2022-09-20T16:59:05.814Z,99837.28
2022-09-20T17:01:34.367Z,99846.34
2022-09-20T17:04:05.197Z,99851.13
2022-09-20T17:06:35.051Z,99855.16
2022-09-20T17:09:03.629Z,99854.16
2022-09-20T17:11:33.117Z,99864.00
2022-09-20T17:14:01.019Z,99866.34
2022-09-20T17:16:30.652Z,99865.38
2022-09-20T17:19:00.569Z,99870.22
2022-09-20T17:21:31.138Z,99865.06
2022-09-20T17:24:00.642Z,99876.66
2022-09-20T17:26:31.412Z,99874.06
2022-09-20T17:28:59.283Z,99869.00
2022-09-20T17:31:33.908Z,99875.44
2022-09-20T17:34:02.379Z,99879.59
2022-09-20T17:36:33.001Z,99880.28
2022-09-20T17:39:04.502Z,99872.44
2022-09-20T17:41:33.754Z,99884.88
2022-09-20T17:44:07.923Z,99892.25
2022-09-20T17:46:37.416Z,99893.75
2022-09-20T17:49:07.341Z,99891.19
2022-09-20T17:51:38.666Z,99902.16
2022-09-20T17:54:07.617Z,99895.56
2022-09-20T17:56:36.217Z,99894.69
2022-09-20T17:59:06.252Z,99903.94
2022-09-20T18:01:36.928Z,99899.97
2022-09-20T18:04:06.907Z,99896.16
2022-09-20T18:06:37.459Z,99897.31
2022-09-20T18:09:09.176Z,99905.16
2022-09-20T18:11:38.997Z,99914.47
2022-09-20T18:14:08.426Z,99913.81
2022-09-20T18:16:37.081Z,99913.06
2022-09-20T18:19:06.072Z,99907.13
2022-09-20T18:21:36.908Z,99911.75
2022-09-20T18:24:07.039Z,99915.06
2022-09-20T18:26:35.903Z,99915.94
2022-09-20T18:29:06.389Z,99916.00
2022-09-20T18:31:36.821Z,99915.84
2022-09-20T18:34:06.573Z,99915.66
2022-09-20T18:36:39.040Z,99917.19
2022-09-20T18:39:07.692Z,99923.91
2022-09-20T18:41:37.264Z,99932.72
2022-09-20T18:44:07.528Z,99927.72
2022-09-20T18:46:38.140Z,99936.09
2022-09-20T18:49:08.271Z,99942.72
2022-09-20T18:51:39.990Z,99949.56
2022-09-20T18:54:10.107Z,99946.97
2022-09-20T18:56:39.202Z,99946.34
2022-09-20T18:59:09.157Z,99947.13
2022-09-20T19:02:09.864Z,99953.56
2022-09-20T19:04:52.072Z,99957.78
2022-09-20T19:07:29.392Z,99956.13
2022-09-20T19:10:04.127Z,99960.41
2022-09-20T19:12:37.280Z,99956.94
2022-09-20T19:15:21.409Z,99958.19
2022-09-20T19:18:06.067Z,99969.75
2022-09-20T19:20:41.971Z,99965.59
2022-09-20T19:23:28.865Z,99960.31
2022-09-20T19:26:08.201Z,99972.78
2022-09-20T19:28:36.508Z,99973.88
2022-09-20T19:31:04.955Z,99979.66
2022-09-20T19:33:33.246Z,99987.41
2022-09-20T19:36:03.231Z,99981.44
2022-09-20T19:38:41.316Z,99979.00
2022-09-20T19:41:27.404Z,99983.25
2022-09-20T19:44:14.236Z,99978.94
2022-09-20T19:46:53.081Z,99960.31
2022-09-20T19:49:28.473Z,99978.31
2022-09-20T19:51:57.768Z,99980.91
2022-09-20T19:54:27.564Z,99980.91
2022-09-20T19:56:57.639Z,99985.84
2022-09-20T19:59:27.312Z,99984.03
2022-09-20T20:01:56.411Z,99994.00
2022-09-20T20:04:24.794Z,99992.94
2022-09-20T20:07:02.066Z,99998.69
2022-09-20T20:09:39.920Z,100003.69
2022-09-20T20:12:15.490Z,100002.59
2022-09-20T20:14:54.278Z,100000.78
2022-09-20T20:17:35.933Z,100000.97
2022-09-20T20:20:20.092Z,99998.78
2022-09-20T20:23:12.290Z,99995.50
2022-09-20T20:25:48.023Z,99998.91
2022-09-20T20:28:15.835Z,100008.91
2022-09-20T20:30:43.610Z,100004.31
2022-09-20T20:33:15.015Z,100003.69
2022-09-20T20:35:43.002Z,100003.69
2022-09-20T20:38:12.553Z,100002.72
2022-09-20T20:40:41.714Z,100006.22
2022-09-20T20:43:09.861Z,100005.47
2022-09-20T20:45:38.618Z,100005.06
2022-09-20T20:48:06.373Z,100005.34
2022-09-20T20:50:35.345Z,100004.09
2022-09-20T20:53:03.132Z,100013.78
2022-09-20T20:55:31.246Z,100011.00
2022-09-20T20:58:00.339Z,100019.81
2022-09-20T21:00:29.944Z,100020.41
2022-09-20T21:02:59.874Z,100022.28
2022-09-20T21:05:28.769Z,100023.19
2022-09-20T21:07:57.865Z,100017.84
2022-09-20T21:10:25.831Z,100027.84
2022-09-20T21:12:55.394Z,100018.63
2022-09-20T21:15:24.520Z,100013.94
2022-09-20T21:17:52.901Z,100023.63
2022-09-20T21:20:21.340Z,100031.19
2022-09-20T21:22:49.163Z,100032.72
2022-09-20T21:25:17.251Z,100031.22
2022-09-20T21:27:45.159Z,100037.97
2022-09-20T21:30:13.777Z,100030.38
2022-09-20T21:32:42.904Z,100016.56
2022-09-20T21:35:11.401Z,100030.94
2022-09-20T21:37:39.400Z,100036.34
2022-09-20T21:40:09.004Z,100034.78
2022-09-20T21:42:36.769Z,100034.25
2022-09-20T21:45:08.494Z,100039.97
2022-09-20T21:47:36.294Z,100039.81
2022-09-20T21:50:06.176Z,100038.72
2022-09-20T21:52:34.469Z,100037.28
2022-09-20T21:55:02.234Z,100047.09
2022-09-20T21:57:29.992Z,100044.38
2022-09-20T21:59:57.757Z,100047.03
2022-09-20T22:02:25.590Z,100045.88
2022-09-20T22:04:53.489Z,100057.44
2022-09-20T22:07:23.201Z,100048.25
2022-09-20T22:09:51.033Z,100048.56
2022-09-20T22:12:18.813Z,100058.34
2022-09-20T22:14:46.600Z,100062.44
2022-09-20T22:17:14.421Z,100049.22
2022-09-20T22:19:42.316Z,100048.97
2022-09-20T22:22:10.063Z,100052.59
2022-09-20T22:24:39.183Z,100048.88
2022-09-20T22:27:07.126Z,100055.72
2022-09-20T22:29:35.159Z,100058.44
2022-09-20T22:32:03.132Z,100050.47
2022-09-20T22:34:30.882Z,100056.34
2022-09-20T22:36:58.631Z,100060.66
2022-09-20T22:39:26.447Z,100055.88
2022-09-20T22:41:55.615Z,100065.13
2022-09-20T22:44:23.452Z,100055.47
2022-09-20T22:46:51.493Z,100064.38
2022-09-20T22:49:19.279Z,100060.13
2022-09-20T22:51:47.050Z,100062.66
2022-09-20T22:54:14.875Z,100056.41
2022-09-20T22:56:42.728Z,100055.00
2022-09-20T22:59:13.470Z,100064.81
2022-09-20T23:01:42.891Z,100059.94
2022-09-20T23:04:12.904Z,100058.78
2022-09-20T23:06:42.596Z,100061.75
2022-09-20T23:09:12.411Z,100058.28
2022-09-20T23:11:42.677Z,100066.69
2022-09-20T23:14:13.883Z,100066.75
2022-09-20T23:16:42.075Z,100058.97
2022-09-20T23:19:10.705Z,100059.47
2022-09-20T23:21:40.013Z,100074.34
2022-09-20T23:24:10.081Z,100070.19
2022-09-20T23:26:39.225Z,100077.63
2022-09-20T23:29:08.992Z,100072.50
2022-09-20T23:31:39.704Z,100077.63
2022-09-20T23:34:08.911Z,100077.44
2022-09-20T23:36:38.555Z,100070.34
2022-09-20T23:39:07.405Z,100080.06
2022-09-20T23:41:36.520Z,100076.72
2022-09-20T23:44:06.394Z,100078.50
2022-09-20T23:46:35.153Z,100077.50
2022-09-20T23:49:04.462Z,100082.72
2022-09-20T23:51:35.261Z,100070.75
2022-09-20T23:54:03.097Z,100082.25
2022-09-20T23:56:31.240Z,100088.19
2022-09-20T23:58:59.144Z,100075.41
